WBGRWBKK

Guest
Details From WBGR - Miri
To WBKK - Kota Kinabalu Intl
Flight Number -
Tags generated
Created
Modified
Stats Distance 157 nm / 291 km
Max Altitude 13,100 ft / 3,993 m
Waypoints 3
Social Downloads 9
Likes 0
Share VATSIM

Download

Looking for another format? Having issues loading an existing format? Contact us
Advertisement - Login to hide

Notes

Basic altitude profile: - Ascent Rate: 2500ft/min - Ascent Speed: 250kts - Cruise Altitude: 35000ft - Cruise Speed: 420kts - Descent Rate: 1500ft/min - Descent Speed: 250kts Options: - Use NATs: yes - Use PACOTS: yes - Use low airways: yes - Use high airways: yes

Route

WBGR VLB WBKK

ID Type Via Altitude Latitude Longitude Leg Dist Tot Dist Heading (true) Name
O WBGR APT - 0 ft / 0 m 4.32207˚ 113.98681˚ - 0 nm - Miri
VLB VOR - 13,100 ft / 3,993 m 5.29000˚ 115.25172˚ 95 nm 95 nm 52° / 53° LABUAN VOR-DME
O WBKK APT - 0 ft / 0 m 5.93721˚ 116.05118˚ 61 nm 157 nm 51° / 51° Kota Kinabalu Intl

Altitude Profile

Advertisement - Login to hide

WBGR

Details ICAO WBGR (MYY)
Name Miri
Region Brunei and Malaysia
Timezone Asia/Kuching (UTC+8.0)
Stats Elevation 59 ft / 18 m (AMSL)
Location 4.322068° 113.986806°
Runways 1
Magnetic Variation 0.083° W

METAR

WBGR 151000Z 23003KT 200V260 9999 FEW016 BKN150 28/24 Q1009

Decode

TAF

TAF WBGR 150500Z 1506/1606 28010KT 9999 FEW016 SCT150 BKN300

Decode

Departure Runways

ID Width Length Bearing (true) Bearing (mag) Surface Threshold Offset Overrun Length
02 197 ft / 60 m 9,040 ft / 2,755 m 24.85° 24.93° Asphalt 0 ft / 0 m 200 ft / 61 m
20 197 ft / 60 m 9,040 ft / 2,755 m 204.85° 204.93° Asphalt 0 ft / 0 m 200 ft / 61 m

WBKK

Details ICAO WBKK (BKI)
Name Kota Kinabalu Intl
Region Brunei and Malaysia
Timezone Asia/Kuching (UTC+8.0)
Stats Elevation 10 ft / 3 m (AMSL)
Location 5.937208° 116.051181°
Runways 1
Magnetic Variation 0.409° W

METAR

WBKK 151000Z VRB02KT 9999 FEW014 SCT140 BKN270 28/24 Q1009 NOSIG

Decode

TAF

TAF TAF AMD WBKK 150915Z 1509/1606 28008KT 9999 FEW014 TEMPO 1512/1516 23010G22KT 4000 TSRA FEW010 FEW016CB SCT035

Decode

Destination Runways

ID Width Length Bearing (true) Bearing (mag) Surface Threshold Offset Overrun Length
02 150 ft / 46 m 9,836 ft / 2,998 m 22.73° 23.14° Asphalt 1,600 ft / 488 m 0 ft / 0 m
20 150 ft / 46 m 9,836 ft / 2,998 m 202.73° 203.14° Asphalt 200 ft / 61 m 0 ft / 0 m

Approach Navaids

Runway Type Ident Frequency Range Bearing (true) Bearing (mag) Slope Elevation
02 Localiser IKKS 110.30 MHz 18 nm / 33 km 22.73° 23.14° - 10 ft / 3 m (AMSL)
02 Glidescope IKKS 110.30 MHz 10 nm / 19 km 22.73° 23.14° 3.00° 10 ft / 3 m (AMSL)
02 DME IKKS 110.30 MHz 18 nm / 33 km - - - 10 ft / 3 m (AMSL)

Popular Alternatives